Terminal Aerodrome Forecast
Issued by NWS

Current Version | Previous Version | Graphics & Text | Print | Product List | Glossary On
Versions: 1 2 3 4 5 6 7 8 9 10 11 12 13 14 15 16 17 18 19 20 21 22 23 24
000
FTUS41 KRLX 250500
TAFCKB
TAF
KCKB 250535Z 2506/2606 07003KT P6SM SCT045
     FM250900 VRB03KT 5SM BR SKC
     FM251300 10004KT P6SM SKC
     FM251600 12006KT P6SM SKC
     FM260100 00000KT P6SM SKC=

USA.gov is the U.S. government's official web portal to all federal, state and local government web resources and services.